sensor_id;sensor_type;location;lat;lon;timestamp;P1;durP1;ratioP1;P2;durP2;ratioP2
81336;SDS011;70799;48.000;10.584;2024-01-16T00:01:56;2.97;;;1.30;;
81336;SDS011;70799;48.000;10.584;2024-01-16T00:04:32;2.17;;;0.90;;
81336;SDS011;70799;48.000;10.584;2024-01-16T00:07:11;3.90;;;1.50;;
81336;SDS011;70799;48.000;10.584;2024-01-16T00:09:47;2.00;;;1.02;;
81336;SDS011;70799;48.000;10.584;2024-01-16T00:12:24;3.00;;;1.30;;
81336;SDS011;70799;48.000;10.584;2024-01-16T00:15:00;4.40;;;1.58;;
81336;SDS011;70799;48.000;10.584;2024-01-16T00:17:38;4.40;;;1.35;;
81336;SDS011;70799;48.000;10.584;2024-01-16T00:20:14;3.20;;;1.40;;
81336;SDS011;70799;48.000;10.584;2024-01-16T00:22:50;3.40;;;1.05;;
81336;SDS011;70799;48.000;10.584;2024-01-16T00:25:26;4.78;;;1.67;;
81336;SDS011;70799;48.000;10.584;2024-01-16T00:28:02;4.30;;;1.50;;
81336;SDS011;70799;48.000;10.584;2024-01-16T00:30:38;2.72;;;1.15;;
81336;SDS011;70799;48.000;10.584;2024-01-16T00:33:14;4.70;;;1.80;;
81336;SDS011;70799;48.000;10.584;2024-01-16T00:35:50;2.53;;;0.75;;
81336;SDS011;70799;48.000;10.584;2024-01-16T00:38:26;3.50;;;1.23;;
81336;SDS011;70799;48.000;10.584;2024-01-16T00:41:02;3.88;;;1.27;;
81336;SDS011;70799;48.000;10.584;2024-01-16T00:43:39;4.88;;;1.02;;
81336;SDS011;70799;48.000;10.584;2024-01-16T00:46:14;5.00;;;1.27;;
81336;SDS011;70799;48.000;10.584;2024-01-16T00:48:50;3.55;;;1.40;;
81336;SDS011;70799;48.000;10.584;2024-01-16T00:51:26;2.55;;;1.13;;
81336;SDS011;70799;48.000;10.584;2024-01-16T00:54:02;4.15;;;1.50;;
81336;SDS011;70799;48.000;10.584;2024-01-16T00:56:41;6.13;;;1.45;;
81336;SDS011;70799;48.000;10.584;2024-01-16T00:59:17;1.58;;;0.77;;
81336;SDS011;70799;48.000;10.584;2024-01-16T01:01:53;4.13;;;1.52;;
81336;SDS011;70799;48.000;10.584;2024-01-16T01:04:29;4.63;;;1.25;;
81336;SDS011;70799;48.000;10.584;2024-01-16T01:07:08;3.20;;;1.27;;
81336;SDS011;70799;48.000;10.584;2024-01-16T01:09:44;1.13;;;0.40;;
81336;SDS011;70799;48.000;10.584;2024-01-16T01:12:20;1.75;;;0.93;;
81336;SDS011;70799;48.000;10.584;2024-01-16T01:14:55;2.38;;;0.73;;
81336;SDS011;70799;48.000;10.584;2024-01-16T01:17:35;4.43;;;1.13;;
81336;SDS011;70799;48.000;10.584;2024-01-16T01:20:11;4.40;;;1.10;;
81336;SDS011;70799;48.000;10.584;2024-01-16T01:22:47;4.90;;;1.38;;
81336;SDS011;70799;48.000;10.584;2024-01-16T01:25:22;4.00;;;1.83;;
81336;SDS011;70799;48.000;10.584;2024-01-16T01:27:58;1.63;;;0.40;;
81336;SDS011;70799;48.000;10.584;2024-01-16T01:30:37;4.22;;;1.42;;
81336;SDS011;70799;48.000;10.584;2024-01-16T01:33:13;4.13;;;1.75;;
81336;SDS011;70799;48.000;10.584;2024-01-16T01:35:49;3.85;;;1.10;;
81336;SDS011;70799;48.000;10.584;2024-01-16T01:38:25;2.22;;;0.88;;
81336;SDS011;70799;48.000;10.584;2024-01-16T01:41:02;4.32;;;1.83;;
81336;SDS011;70799;48.000;10.584;2024-01-16T01:43:39;4.50;;;1.63;;
81336;SDS011;70799;48.000;10.584;2024-01-16T01:46:16;4.70;;;1.42;;
81336;SDS011;70799;48.000;10.584;2024-01-16T01:48:53;6.05;;;2.00;;
81336;SDS011;70799;48.000;10.584;2024-01-16T01:51:29;3.38;;;0.85;;
81336;SDS011;70799;48.000;10.584;2024-01-16T01:54:05;4.00;;;1.25;;
81336;SDS011;70799;48.000;10.584;2024-01-16T01:56:42;2.88;;;1.00;;
81336;SDS011;70799;48.000;10.584;2024-01-16T01:59:19;5.22;;;1.73;;
81336;SDS011;70799;48.000;10.584;2024-01-16T02:01:58;3.92;;;1.45;;
81336;SDS011;70799;48.000;10.584;2024-01-16T02:04:35;3.83;;;1.20;;
81336;SDS011;70799;48.000;10.584;2024-01-16T02:09:48;1.92;;;0.63;;
81336;SDS011;70799;48.000;10.584;2024-01-16T02:12:25;3.80;;;1.50;;
81336;SDS011;70799;48.000;10.584;2024-01-16T02:15:01;4.07;;;1.45;;
81336;SDS011;70799;48.000;10.584;2024-01-16T02:17:38;3.67;;;0.98;;
81336;SDS011;70799;48.000;10.584;2024-01-16T02:20:14;2.70;;;0.75;;
81336;SDS011;70799;48.000;10.584;2024-01-16T02:22:50;3.58;;;1.30;;
81336;SDS011;70799;48.000;10.584;2024-01-16T02:25:28;5.88;;;1.27;;
81336;SDS011;70799;48.000;10.584;2024-01-16T02:28:04;4.43;;;1.27;;
81336;SDS011;70799;48.000;10.584;2024-01-16T02:30:41;4.85;;;1.58;;
81336;SDS011;70799;48.000;10.584;2024-01-16T02:33:18;2.58;;;0.60;;
81336;SDS011;70799;48.000;10.584;2024-01-16T02:35:54;5.75;;;1.48;;
81336;SDS011;70799;48.000;10.584;2024-01-16T02:38:30;3.40;;;1.20;;
81336;SDS011;70799;48.000;10.584;2024-01-16T02:41:07;3.00;;;1.08;;
81336;SDS011;70799;48.000;10.584;2024-01-16T02:43:43;2.78;;;1.17;;
81336;SDS011;70799;48.000;10.584;2024-01-16T02:46:19;1.85;;;0.95;;
81336;SDS011;70799;48.000;10.584;2024-01-16T02:48:55;5.45;;;1.77;;
81336;SDS011;70799;48.000;10.584;2024-01-16T02:51:33;3.38;;;1.52;;
81336;SDS011;70799;48.000;10.584;2024-01-16T02:54:09;3.85;;;1.27;;
81336;SDS011;70799;48.000;10.584;2024-01-16T02:56:45;3.42;;;1.17;;
81336;SDS011;70799;48.000;10.584;2024-01-16T02:59:21;3.25;;;0.93;;
81336;SDS011;70799;48.000;10.584;2024-01-16T03:01:57;4.50;;;1.23;;
81336;SDS011;70799;48.000;10.584;2024-01-16T03:04:34;3.03;;;1.30;;
81336;SDS011;70799;48.000;10.584;2024-01-16T03:07:10;5.55;;;1.13;;
81336;SDS011;70799;48.000;10.584;2024-01-16T03:09:46;2.65;;;1.23;;
81336;SDS011;70799;48.000;10.584;2024-01-16T03:12:22;3.80;;;1.20;;
81336;SDS011;70799;48.000;10.584;2024-01-16T03:14:57;3.35;;;1.35;;
81336;SDS011;70799;48.000;10.584;2024-01-16T03:17:34;2.83;;;1.10;;
81336;SDS011;70799;48.000;10.584;2024-01-16T03:20:11;3.47;;;1.33;;
81336;SDS011;70799;48.000;10.584;2024-01-16T03:22:47;3.38;;;1.23;;
81336;SDS011;70799;48.000;10.584;2024-01-16T03:25:23;2.60;;;1.20;;
81336;SDS011;70799;48.000;10.584;2024-01-16T03:27:59;2.63;;;0.95;;
81336;SDS011;70799;48.000;10.584;2024-01-16T03:30:40;3.10;;;0.95;;
81336;SDS011;70799;48.000;10.584;2024-01-16T03:33:16;3.45;;;1.35;;
81336;SDS011;70799;48.000;10.584;2024-01-16T03:35:52;3.97;;;1.10;;
81336;SDS011;70799;48.000;10.584;2024-01-16T03:38:28;3.15;;;1.15;;
81336;SDS011;70799;48.000;10.584;2024-01-16T03:41:04;3.10;;;0.80;;
81336;SDS011;70799;48.000;10.584;2024-01-16T03:43:40;3.50;;;1.45;;
81336;SDS011;70799;48.000;10.584;2024-01-16T03:46:16;2.45;;;0.85;;
81336;SDS011;70799;48.000;10.584;2024-01-16T03:48:52;3.00;;;1.10;;
81336;SDS011;70799;48.000;10.584;2024-01-16T03:51:28;2.10;;;1.20;;
81336;SDS011;70799;48.000;10.584;2024-01-16T03:54:04;3.95;;;1.33;;
81336;SDS011;70799;48.000;10.584;2024-01-16T03:56:40;3.13;;;1.08;;
81336;SDS011;70799;48.000;10.584;2024-01-16T03:59:16;3.42;;;1.10;;
81336;SDS011;70799;48.000;10.584;2024-01-16T04:01:54;2.42;;;0.77;;
81336;SDS011;70799;48.000;10.584;2024-01-16T04:04:32;2.88;;;1.23;;
81336;SDS011;70799;48.000;10.584;2024-01-16T04:07:07;2.22;;;0.88;;
81336;SDS011;70799;48.000;10.584;2024-01-16T04:09:43;4.10;;;1.30;;
81336;SDS011;70799;48.000;10.584;2024-01-16T04:12:19;2.83;;;0.95;;
81336;SDS011;70799;48.000;10.584;2024-01-16T04:14:55;2.95;;;0.93;;
81336;SDS011;70799;48.000;10.584;2024-01-16T04:17:32;3.30;;;1.00;;
81336;SDS011;70799;48.000;10.584;2024-01-16T04:20:09;3.28;;;0.88;;
81336;SDS011;70799;48.000;10.584;2024-01-16T04:25:21;3.63;;;1.05;;
81336;SDS011;70799;48.000;10.584;2024-01-16T04:27:58;2.60;;;1.13;;
81336;SDS011;70799;48.000;10.584;2024-01-16T04:33:10;3.10;;;1.27;;
81336;SDS011;70799;48.000;10.584;2024-01-16T04:35:47;3.65;;;1.27;;
81336;SDS011;70799;48.000;10.584;2024-01-16T04:38:23;2.30;;;0.70;;
81336;SDS011;70799;48.000;10.584;2024-01-16T04:41:02;5.00;;;1.40;;
81336;SDS011;70799;48.000;10.584;2024-01-16T04:43:39;4.63;;;2.30;;
81336;SDS011;70799;48.000;10.584;2024-01-16T04:46:21;3.17;;;1.73;;
81336;SDS011;70799;48.000;10.584;2024-01-16T04:48:58;7.20;;;1.92;;
81336;SDS011;70799;48.000;10.584;2024-01-16T04:51:34;3.65;;;1.10;;
81336;SDS011;70799;48.000;10.584;2024-01-16T04:54:11;3.45;;;1.20;;
81336;SDS011;70799;48.000;10.584;2024-01-16T04:56:47;3.67;;;1.27;;
81336;SDS011;70799;48.000;10.584;2024-01-16T04:59:23;4.32;;;1.48;;
81336;SDS011;70799;48.000;10.584;2024-01-16T05:01:59;3.70;;;1.30;;
81336;SDS011;70799;48.000;10.584;2024-01-16T05:04:37;6.10;;;1.58;;
81336;SDS011;70799;48.000;10.584;2024-01-16T05:09:51;4.70;;;1.38;;
81336;SDS011;70799;48.000;10.584;2024-01-16T05:12:27;3.92;;;1.17;;
81336;SDS011;70799;48.000;10.584;2024-01-16T05:15:07;2.67;;;1.10;;
81336;SDS011;70799;48.000;10.584;2024-01-16T05:17:52;4.57;;;1.63;;
81336;SDS011;70799;48.000;10.584;2024-01-16T05:20:29;4.57;;;1.20;;
81336;SDS011;70799;48.000;10.584;2024-01-16T05:23:05;4.30;;;1.40;;
81336;SDS011;70799;48.000;10.584;2024-01-16T05:25:41;3.20;;;1.50;;
81336;SDS011;70799;48.000;10.584;2024-01-16T05:28:17;4.35;;;1.52;;
81336;SDS011;70799;48.000;10.584;2024-01-16T05:30:53;3.58;;;1.08;;
81336;SDS011;70799;48.000;10.584;2024-01-16T05:33:29;3.58;;;1.38;;
81336;SDS011;70799;48.000;10.584;2024-01-16T05:36:06;4.18;;;2.00;;
81336;SDS011;70799;48.000;10.584;2024-01-16T05:38:42;5.22;;;1.50;;
81336;SDS011;70799;48.000;10.584;2024-01-16T05:41:19;5.32;;;1.50;;
81336;SDS011;70799;48.000;10.584;2024-01-16T05:43:55;4.50;;;1.27;;
81336;SDS011;70799;48.000;10.584;2024-01-16T05:46:32;7.43;;;1.45;;
81336;SDS011;70799;48.000;10.584;2024-01-16T05:49:08;3.05;;;1.73;;
81336;SDS011;70799;48.000;10.584;2024-01-16T05:51:45;4.80;;;2.03;;
81336;SDS011;70799;48.000;10.584;2024-01-16T05:54:21;5.22;;;1.55;;
81336;SDS011;70799;48.000;10.584;2024-01-16T05:56:57;6.00;;;1.75;;
81336;SDS011;70799;48.000;10.584;2024-01-16T05:59:35;4.90;;;1.33;;
81336;SDS011;70799;48.000;10.584;2024-01-16T06:02:11;5.47;;;1.70;;
81336;SDS011;70799;48.000;10.584;2024-01-16T06:04:47;8.07;;;2.08;;
81336;SDS011;70799;48.000;10.584;2024-01-16T06:07:23;5.60;;;1.90;;
81336;SDS011;70799;48.000;10.584;2024-01-16T06:10:04;4.82;;;1.98;;
81336;SDS011;70799;48.000;10.584;2024-01-16T06:12:42;3.78;;;1.45;;
81336;SDS011;70799;48.000;10.584;2024-01-16T06:15:18;5.35;;;2.40;;
81336;SDS011;70799;48.000;10.584;2024-01-16T06:20:33;6.40;;;2.00;;
81336;SDS011;70799;48.000;10.584;2024-01-16T06:23:10;5.03;;;1.77;;
81336;SDS011;70799;48.000;10.584;2024-01-16T06:25:46;3.30;;;1.60;;
81336;SDS011;70799;48.000;10.584;2024-01-16T06:28:22;5.68;;;1.55;;
81336;SDS011;70799;48.000;10.584;2024-01-16T06:30:58;5.93;;;1.73;;
81336;SDS011;70799;48.000;10.584;2024-01-16T06:33:34;6.78;;;2.00;;
81336;SDS011;70799;48.000;10.584;2024-01-16T06:36:10;6.13;;;2.17;;
81336;SDS011;70799;48.000;10.584;2024-01-16T06:38:46;4.75;;;1.98;;
81336;SDS011;70799;48.000;10.584;2024-01-16T06:41:23;7.20;;;2.22;;
81336;SDS011;70799;48.000;10.584;2024-01-16T06:44:05;5.32;;;2.10;;
81336;SDS011;70799;48.000;10.584;2024-01-16T06:46:41;9.40;;;2.58;;
81336;SDS011;70799;48.000;10.584;2024-01-16T06:49:17;10.13;;;2.00;;
81336;SDS011;70799;48.000;10.584;2024-01-16T06:51:53;8.40;;;1.73;;
81336;SDS011;70799;48.000;10.584;2024-01-16T06:54:29;4.63;;;2.05;;
81336;SDS011;70799;48.000;10.584;2024-01-16T06:57:05;6.03;;;1.90;;
81336;SDS011;70799;48.000;10.584;2024-01-16T06:59:41;4.63;;;1.83;;
81336;SDS011;70799;48.000;10.584;2024-01-16T07:02:18;5.63;;;2.00;;
81336;SDS011;70799;48.000;10.584;2024-01-16T07:04:54;5.63;;;1.45;;
81336;SDS011;70799;48.000;10.584;2024-01-16T07:07:32;4.38;;;1.35;;
81336;SDS011;70799;48.000;10.584;2024-01-16T07:12:50;7.90;;;1.63;;
81336;SDS011;70799;48.000;10.584;2024-01-16T07:15:27;5.88;;;1.85;;
81336;SDS011;70799;48.000;10.584;2024-01-16T07:18:03;4.07;;;1.73;;
81336;SDS011;70799;48.000;10.584;2024-01-16T07:20:40;10.77;;;2.45;;
81336;SDS011;70799;48.000;10.584;2024-01-16T07:23:16;6.28;;;1.52;;
81336;SDS011;70799;48.000;10.584;2024-01-16T07:25:52;6.50;;;1.88;;
81336;SDS011;70799;48.000;10.584;2024-01-16T07:28:28;6.15;;;2.55;;
81336;SDS011;70799;48.000;10.584;2024-01-16T07:31:07;6.30;;;1.50;;
81336;SDS011;70799;48.000;10.584;2024-01-16T07:36:20;6.55;;;2.17;;
81336;SDS011;70799;48.000;10.584;2024-01-16T07:38:56;5.60;;;2.05;;
81336;SDS011;70799;48.000;10.584;2024-01-16T07:41:33;5.03;;;1.77;;
81336;SDS011;70799;48.000;10.584;2024-01-16T07:44:09;6.00;;;2.38;;
81336;SDS011;70799;48.000;10.584;2024-01-16T07:46:45;5.10;;;2.05;;
81336;SDS011;70799;48.000;10.584;2024-01-16T07:49:21;6.35;;;2.20;;
81336;SDS011;70799;48.000;10.584;2024-01-16T07:54:35;4.40;;;1.75;;
81336;SDS011;70799;48.000;10.584;2024-01-16T07:57:12;6.68;;;2.20;;
81336;SDS011;70799;48.000;10.584;2024-01-16T07:59:54;5.88;;;1.85;;
81336;SDS011;70799;48.000;10.584;2024-01-16T08:02:35;5.53;;;1.88;;
81336;SDS011;70799;48.000;10.584;2024-01-16T08:05:12;7.28;;;1.95;;
81336;SDS011;70799;48.000;10.584;2024-01-16T08:07:48;7.47;;;2.35;;
81336;SDS011;70799;48.000;10.584;2024-01-16T08:10:24;7.00;;;2.65;;
81336;SDS011;70799;48.000;10.584;2024-01-16T08:13:00;5.20;;;2.20;;
81336;SDS011;70799;48.000;10.584;2024-01-16T08:15:36;7.05;;;2.63;;
81336;SDS011;70799;48.000;10.584;2024-01-16T08:18:12;5.13;;;2.17;;
81336;SDS011;70799;48.000;10.584;2024-01-16T08:20:51;6.75;;;2.30;;
81336;SDS011;70799;48.000;10.584;2024-01-16T08:23:27;6.13;;;2.22;;
81336;SDS011;70799;48.000;10.584;2024-01-16T08:26:03;5.78;;;2.47;;
81336;SDS011;70799;48.000;10.584;2024-01-16T08:31:18;6.43;;;2.85;;
81336;SDS011;70799;48.000;10.584;2024-01-16T08:33:54;5.63;;;2.75;;
81336;SDS011;70799;48.000;10.584;2024-01-16T08:36:32;7.97;;;2.75;;
81336;SDS011;70799;48.000;10.584;2024-01-16T08:39:09;8.18;;;3.75;;
81336;SDS011;70799;48.000;10.584;2024-01-16T08:41:45;6.75;;;2.75;;
81336;SDS011;70799;48.000;10.584;2024-01-16T08:44:22;8.10;;;3.28;;
81336;SDS011;70799;48.000;10.584;2024-01-16T08:46:58;8.02;;;2.80;;
81336;SDS011;70799;48.000;10.584;2024-01-16T08:49:36;6.82;;;2.50;;
81336;SDS011;70799;48.000;10.584;2024-01-16T08:52:13;6.88;;;2.97;;
81336;SDS011;70799;48.000;10.584;2024-01-16T08:54:49;6.63;;;2.85;;
81336;SDS011;70799;48.000;10.584;2024-01-16T08:57:25;5.53;;;2.28;;
81336;SDS011;70799;48.000;10.584;2024-01-16T09:02:41;7.95;;;2.75;;
81336;SDS011;70799;48.000;10.584;2024-01-16T09:05:17;9.18;;;3.38;;
81336;SDS011;70799;48.000;10.584;2024-01-16T09:07:57;6.85;;;3.20;;
81336;SDS011;70799;48.000;10.584;2024-01-16T09:10:35;9.65;;;2.88;;
81336;SDS011;70799;48.000;10.584;2024-01-16T09:13:11;7.05;;;2.58;;
81336;SDS011;70799;48.000;10.584;2024-01-16T09:15:47;7.32;;;3.13;;
81336;SDS011;70799;48.000;10.584;2024-01-16T09:18:24;6.95;;;3.20;;
81336;SDS011;70799;48.000;10.584;2024-01-16T09:21:00;6.35;;;2.67;;
81336;SDS011;70799;48.000;10.584;2024-01-16T09:23:36;6.32;;;2.80;;
81336;SDS011;70799;48.000;10.584;2024-01-16T09:26:12;9.32;;;3.33;;
81336;SDS011;70799;48.000;10.584;2024-01-16T09:28:49;7.03;;;2.90;;
81336;SDS011;70799;48.000;10.584;2024-01-16T09:31:25;8.07;;;2.90;;
81336;SDS011;70799;48.000;10.584;2024-01-16T09:34:03;5.53;;;3.03;;
81336;SDS011;70799;48.000;10.584;2024-01-16T09:36:41;7.47;;;3.20;;
81336;SDS011;70799;48.000;10.584;2024-01-16T09:39:17;9.48;;;4.20;;
81336;SDS011;70799;48.000;10.584;2024-01-16T09:44:40;7.05;;;2.88;;
81336;SDS011;70799;48.000;10.584;2024-01-16T09:47:17;9.77;;;3.33;;
81336;SDS011;70799;48.000;10.584;2024-01-16T09:49:53;7.65;;;3.40;;
81336;SDS011;70799;48.000;10.584;2024-01-16T09:52:29;9.48;;;3.17;;
81336;SDS011;70799;48.000;10.584;2024-01-16T09:55:06;6.75;;;3.45;;
81336;SDS011;70799;48.000;10.584;2024-01-16T09:57:43;8.02;;;2.92;;
81336;SDS011;70799;48.000;10.584;2024-01-16T10:00:20;9.98;;;3.22;;
81336;SDS011;70799;48.000;10.584;2024-01-16T10:02:57;7.07;;;3.28;;
81336;SDS011;70799;48.000;10.584;2024-01-16T10:05:33;7.93;;;3.15;;
81336;SDS011;70799;48.000;10.584;2024-01-16T10:10:46;5.97;;;2.97;;
81336;SDS011;70799;48.000;10.584;2024-01-16T10:13:24;6.72;;;3.25;;
81336;SDS011;70799;48.000;10.584;2024-01-16T10:16:02;8.65;;;4.10;;
81336;SDS011;70799;48.000;10.584;2024-01-16T10:18:38;6.65;;;3.13;;
81336;SDS011;70799;48.000;10.584;2024-01-16T10:21:19;8.05;;;3.58;;
81336;SDS011;70799;48.000;10.584;2024-01-16T10:24:13;6.72;;;3.33;;
81336;SDS011;70799;48.000;10.584;2024-01-16T10:26:54;9.02;;;3.35;;
81336;SDS011;70799;48.000;10.584;2024-01-16T10:29:35;7.03;;;3.17;;
81336;SDS011;70799;48.000;10.584;2024-01-16T10:32:27;7.28;;;2.83;;
81336;SDS011;70799;48.000;10.584;2024-01-16T10:37:49;7.57;;;3.00;;
81336;SDS011;70799;48.000;10.584;2024-01-16T10:40:26;7.88;;;3.50;;
81336;SDS011;70799;48.000;10.584;2024-01-16T10:43:04;7.70;;;3.55;;
81336;SDS011;70799;48.000;10.584;2024-01-16T10:45:40;8.50;;;3.67;;
81336;SDS011;70799;48.000;10.584;2024-01-16T10:48:16;10.20;;;3.63;;
81336;SDS011;70799;48.000;10.584;2024-01-16T10:50:51;7.30;;;3.42;;
81336;SDS011;70799;48.000;10.584;2024-01-16T10:53:29;9.13;;;3.50;;
81336;SDS011;70799;48.000;10.584;2024-01-16T10:56:09;6.13;;;3.10;;
81336;SDS011;70799;48.000;10.584;2024-01-16T10:58:49;7.05;;;3.22;;
81336;SDS011;70799;48.000;10.584;2024-01-16T11:01:50;7.68;;;3.58;;
81336;SDS011;70799;48.000;10.584;2024-01-16T11:04:29;8.25;;;2.95;;
81336;SDS011;70799;48.000;10.584;2024-01-16T11:07:05;7.10;;;3.00;;
81336;SDS011;70799;48.000;10.584;2024-01-16T11:09:41;6.57;;;2.65;;
81336;SDS011;70799;48.000;10.584;2024-01-16T11:12:19;6.97;;;2.47;;
81336;SDS011;70799;48.000;10.584;2024-01-16T11:14:58;7.97;;;2.88;;
81336;SDS011;70799;48.000;10.584;2024-01-16T11:17:39;6.60;;;2.90;;
81336;SDS011;70799;48.000;10.584;2024-01-16T11:20:18;11.95;;;4.47;;
81336;SDS011;70799;48.000;10.584;2024-01-16T11:23:14;14.35;;;4.95;;
81336;SDS011;70799;48.000;10.584;2024-01-16T11:25:50;12.30;;;4.75;;
81336;SDS011;70799;48.000;10.584;2024-01-16T11:28:27;10.85;;;3.72;;
81336;SDS011;70799;48.000;10.584;2024-01-16T11:31:26;7.45;;;4.00;;
81336;SDS011;70799;48.000;10.584;2024-01-16T11:34:06;7.57;;;2.97;;
81336;SDS011;70799;48.000;10.584;2024-01-16T11:36:52;9.52;;;2.90;;
81336;SDS011;70799;48.000;10.584;2024-01-16T11:39:28;7.57;;;2.97;;
81336;SDS011;70799;48.000;10.584;2024-01-16T11:42:04;6.80;;;2.83;;
81336;SDS011;70799;48.000;10.584;2024-01-16T11:44:41;5.30;;;2.25;;
81336;SDS011;70799;48.000;10.584;2024-01-16T11:47:23;6.70;;;3.00;;
81336;SDS011;70799;48.000;10.584;2024-01-16T11:50:09;5.47;;;2.80;;
81336;SDS011;70799;48.000;10.584;2024-01-16T11:52:46;4.75;;;1.95;;
81336;SDS011;70799;48.000;10.584;2024-01-16T11:55:25;5.65;;;2.45;;
81336;SDS011;70799;48.000;10.584;2024-01-16T12:01:02;4.35;;;1.73;;
81336;SDS011;70799;48.000;10.584;2024-01-16T12:03:39;4.53;;;1.52;;
81336;SDS011;70799;48.000;10.584;2024-01-16T12:06:16;5.68;;;2.08;;
81336;SDS011;70799;48.000;10.584;2024-01-16T12:08:53;6.05;;;2.53;;
81336;SDS011;70799;48.000;10.584;2024-01-16T12:11:29;6.57;;;2.40;;
81336;SDS011;70799;48.000;10.584;2024-01-16T12:14:14;5.97;;;2.60;;
81336;SDS011;70799;48.000;10.584;2024-01-16T12:16:51;7.57;;;3.05;;
81336;SDS011;70799;48.000;10.584;2024-01-16T12:19:27;5.05;;;2.28;;
81336;SDS011;70799;48.000;10.584;2024-01-16T12:22:03;5.75;;;2.65;;
81336;SDS011;70799;48.000;10.584;2024-01-16T12:30:04;6.70;;;2.20;;
81336;SDS011;70799;48.000;10.584;2024-01-16T12:32:41;6.40;;;2.42;;
81336;SDS011;70799;48.000;10.584;2024-01-16T12:35:26;6.68;;;2.95;;
81336;SDS011;70799;48.000;10.584;2024-01-16T12:38:09;5.20;;;2.65;;
81336;SDS011;70799;48.000;10.584;2024-01-16T12:40:47;5.72;;;3.00;;
81336;SDS011;70799;48.000;10.584;2024-01-16T12:43:24;5.72;;;2.47;;
81336;SDS011;70799;48.000;10.584;2024-01-16T12:46:00;7.68;;;3.03;;
81336;SDS011;70799;48.000;10.584;2024-01-16T12:48:38;8.75;;;3.05;;
81336;SDS011;70799;48.000;10.584;2024-01-16T12:51:27;6.70;;;3.17;;
81336;SDS011;70799;48.000;10.584;2024-01-16T12:54:13;6.97;;;3.00;;
81336;SDS011;70799;48.000;10.584;2024-01-16T12:56:57;5.88;;;2.20;;
81336;SDS011;70799;48.000;10.584;2024-01-16T12:59:34;5.93;;;2.15;;
81336;SDS011;70799;48.000;10.584;2024-01-16T13:02:18;5.85;;;2.38;;
81336;SDS011;70799;48.000;10.584;2024-01-16T13:04:58;6.03;;;2.25;;
81336;SDS011;70799;48.000;10.584;2024-01-16T13:07:37;5.15;;;2.05;;
81336;SDS011;70799;48.000;10.584;2024-01-16T13:10:13;5.28;;;2.60;;
81336;SDS011;70799;48.000;10.584;2024-01-16T13:12:54;6.18;;;2.40;;
81336;SDS011;70799;48.000;10.584;2024-01-16T13:15:47;6.85;;;2.65;;
81336;SDS011;70799;48.000;10.584;2024-01-16T13:21:00;5.07;;;1.98;;
81336;SDS011;70799;48.000;10.584;2024-01-16T13:23:37;5.47;;;2.15;;
81336;SDS011;70799;48.000;10.584;2024-01-16T13:26:13;4.35;;;2.22;;
81336;SDS011;70799;48.000;10.584;2024-01-16T13:28:49;7.05;;;2.22;;
81336;SDS011;70799;48.000;10.584;2024-01-16T13:31:25;5.35;;;2.60;;
81336;SDS011;70799;48.000;10.584;2024-01-16T13:34:01;8.18;;;2.40;;
81336;SDS011;70799;48.000;10.584;2024-01-16T13:36:37;7.40;;;2.90;;
81336;SDS011;70799;48.000;10.584;2024-01-16T13:39:18;6.53;;;2.28;;
81336;SDS011;70799;48.000;10.584;2024-01-16T13:41:54;5.30;;;2.47;;
81336;SDS011;70799;48.000;10.584;2024-01-16T13:44:30;8.02;;;2.45;;
81336;SDS011;70799;48.000;10.584;2024-01-16T13:47:06;5.85;;;2.45;;
81336;SDS011;70799;48.000;10.584;2024-01-16T13:49:46;6.72;;;2.85;;
81336;SDS011;70799;48.000;10.584;2024-01-16T13:52:22;5.22;;;2.35;;
81336;SDS011;70799;48.000;10.584;2024-01-16T13:55:03;5.85;;;2.25;;
81336;SDS011;70799;48.000;10.584;2024-01-16T13:57:40;5.47;;;2.35;;
81336;SDS011;70799;48.000;10.584;2024-01-16T14:00:16;6.15;;;2.60;;
81336;SDS011;70799;48.000;10.584;2024-01-16T14:02:52;7.82;;;2.83;;
81336;SDS011;70799;48.000;10.584;2024-01-16T14:05:28;7.38;;;3.20;;
81336;SDS011;70799;48.000;10.584;2024-01-16T14:08:04;5.40;;;2.53;;
81336;SDS011;70799;48.000;10.584;2024-01-16T14:10:40;8.02;;;2.85;;
81336;SDS011;70799;48.000;10.584;2024-01-16T14:13:16;6.40;;;2.60;;
81336;SDS011;70799;48.000;10.584;2024-01-16T14:15:52;7.20;;;2.88;;
81336;SDS011;70799;48.000;10.584;2024-01-16T14:18:29;6.60;;;3.00;;
81336;SDS011;70799;48.000;10.584;2024-01-16T14:21:05;7.72;;;3.20;;
81336;SDS011;70799;48.000;10.584;2024-01-16T14:31:29;5.25;;;2.47;;
81336;SDS011;70799;48.000;10.584;2024-01-16T14:34:05;6.70;;;3.30;;
81336;SDS011;70799;48.000;10.584;2024-01-16T14:36:41;6.97;;;3.40;;
81336;SDS011;70799;48.000;10.584;2024-01-16T14:41:57;6.35;;;3.22;;
81336;SDS011;70799;48.000;10.584;2024-01-16T14:44:34;7.18;;;3.30;;
81336;SDS011;70799;48.000;10.584;2024-01-16T14:47:10;8.57;;;3.38;;
81336;SDS011;70799;48.000;10.584;2024-01-16T14:49:46;6.18;;;2.85;;
81336;SDS011;70799;48.000;10.584;2024-01-16T14:54:59;5.30;;;2.70;;
81336;SDS011;70799;48.000;10.584;2024-01-16T14:57:39;7.15;;;3.00;;
81336;SDS011;70799;48.000;10.584;2024-01-16T15:00:18;7.80;;;3.08;;
81336;SDS011;70799;48.000;10.584;2024-01-16T15:02:56;6.75;;;2.95;;
81336;SDS011;70799;48.000;10.584;2024-01-16T15:05:34;8.55;;;3.55;;
81336;SDS011;70799;48.000;10.584;2024-01-16T15:10:46;7.50;;;2.88;;
81336;SDS011;70799;48.000;10.584;2024-01-16T15:13:22;6.90;;;3.65;;
81336;SDS011;70799;48.000;10.584;2024-01-16T15:15:58;6.32;;;2.97;;
81336;SDS011;70799;48.000;10.584;2024-01-16T15:18:34;7.97;;;3.28;;
81336;SDS011;70799;48.000;10.584;2024-01-16T15:21:10;8.25;;;3.58;;
81336;SDS011;70799;48.000;10.584;2024-01-16T15:23:46;6.55;;;3.42;;
81336;SDS011;70799;48.000;10.584;2024-01-16T15:26:22;9.45;;;3.42;;
81336;SDS011;70799;48.000;10.584;2024-01-16T15:28:58;7.32;;;3.55;;
81336;SDS011;70799;48.000;10.584;2024-01-16T15:31:34;9.05;;;3.22;;
81336;SDS011;70799;48.000;10.584;2024-01-16T15:34:10;6.57;;;3.22;;
81336;SDS011;70799;48.000;10.584;2024-01-16T15:36:48;8.52;;;3.05;;
81336;SDS011;70799;48.000;10.584;2024-01-16T15:39:25;8.50;;;3.25;;
81336;SDS011;70799;48.000;10.584;2024-01-16T15:42:01;8.27;;;3.67;;
81336;SDS011;70799;48.000;10.584;2024-01-16T15:44:38;7.85;;;3.30;;
81336;SDS011;70799;48.000;10.584;2024-01-16T15:47:15;7.20;;;2.97;;
81336;SDS011;70799;48.000;10.584;2024-01-16T15:49:51;11.88;;;3.97;;
81336;SDS011;70799;48.000;10.584;2024-01-16T15:52:27;8.10;;;3.47;;
81336;SDS011;70799;48.000;10.584;2024-01-16T15:55:03;9.18;;;3.50;;
81336;SDS011;70799;48.000;10.584;2024-01-16T15:57:39;11.02;;;4.25;;
81336;SDS011;70799;48.000;10.584;2024-01-16T16:00:17;8.57;;;3.90;;
81336;SDS011;70799;48.000;10.584;2024-01-16T16:02:55;8.75;;;4.00;;
81336;SDS011;70799;48.000;10.584;2024-01-16T16:05:31;7.38;;;3.40;;
81336;SDS011;70799;48.000;10.584;2024-01-16T16:08:07;11.25;;;4.28;;
81336;SDS011;70799;48.000;10.584;2024-01-16T16:10:43;10.73;;;3.85;;
81336;SDS011;70799;48.000;10.584;2024-01-16T16:13:19;9.15;;;3.72;;
81336;SDS011;70799;48.000;10.584;2024-01-16T16:15:56;7.95;;;3.30;;
81336;SDS011;70799;48.000;10.584;2024-01-16T16:18:32;7.68;;;3.88;;
81336;SDS011;70799;48.000;10.584;2024-01-16T16:21:09;7.47;;;3.72;;
81336;SDS011;70799;48.000;10.584;2024-01-16T16:23:46;7.63;;;4.07;;
81336;SDS011;70799;48.000;10.584;2024-01-16T16:26:28;7.95;;;3.22;;
81336;SDS011;70799;48.000;10.584;2024-01-16T16:29:06;8.45;;;3.88;;
81336;SDS011;70799;48.000;10.584;2024-01-16T16:31:44;9.63;;;3.83;;
81336;SDS011;70799;48.000;10.584;2024-01-16T16:34:20;8.57;;;3.63;;